sensor_id;sensor_type;location;lat;lon;timestamp;pressure;altitude;pressure_sealevel;temperature;humidity
21182;BME280;10749;46.296;7.524;2023-08-01T00:01:56;94353.25;;;23.98;37.70
21182;BME280;10749;46.296;7.524;2023-08-01T00:04:22;94355.94;;;23.98;37.69
21182;BME280;10749;46.296;7.524;2023-08-01T00:06:47;94353.78;;;23.95;37.83
21182;BME280;10749;46.296;7.524;2023-08-01T00:09:12;94351.91;;;23.96;37.83
21182;BME280;10749;46.296;7.524;2023-08-01T00:11:37;94354.59;;;23.96;38.36
21182;BME280;10749;46.296;7.524;2023-08-01T00:14:04;94352.97;;;23.95;38.01
21182;BME280;10749;46.296;7.524;2023-08-01T00:16:29;94355.69;;;23.95;38.01
21182;BME280;10749;46.296;7.524;2023-08-01T00:18:54;94349.75;;;23.92;38.28
21182;BME280;10749;46.296;7.524;2023-08-01T00:21:20;94349.75;;;23.92;38.44
21182;BME280;10749;46.296;7.524;2023-08-01T00:23:45;94348.41;;;23.90;38.31
21182;BME280;10749;46.296;7.524;2023-08-01T00:26:10;94343.81;;;23.85;38.25
21182;BME280;10749;46.296;7.524;2023-08-01T00:28:38;94336.56;;;23.81;38.76
21182;BME280;10749;46.296;7.524;2023-08-01T00:31:07;94326.25;;;23.83;38.40
21182;BME280;10749;46.296;7.524;2023-08-01T00:33:36;94325.44;;;23.87;38.39
21182;BME280;10749;46.296;7.524;2023-08-01T00:36:02;94315.44;;;23.88;38.54
21182;BME280;10749;46.296;7.524;2023-08-01T00:38:28;94321.94;;;23.87;38.53
21182;BME280;10749;46.296;7.524;2023-08-01T00:40:53;94317.34;;;23.87;38.92
21182;BME280;10749;46.296;7.524;2023-08-01T00:43:19;94314.66;;;23.77;38.83
21182;BME280;10749;46.296;7.524;2023-08-01T00:45:45;94316.28;;;23.73;39.16
21182;BME280;10749;46.296;7.524;2023-08-01T00:48:11;94304.41;;;23.74;39.04
21182;BME280;10749;46.296;7.524;2023-08-01T00:50:36;94304.94;;;23.71;39.02
21182;BME280;10749;46.296;7.524;2023-08-01T00:53:01;94310.63;;;23.65;38.87
21182;BME280;10749;46.296;7.524;2023-08-01T00:55:29;94304.97;;;23.66;38.99
21182;BME280;10749;46.296;7.524;2023-08-01T00:57:54;94295.22;;;23.65;38.60
21182;BME280;10749;46.296;7.524;2023-08-01T01:00:20;94287.13;;;23.65;39.01
21182;BME280;10749;46.296;7.524;2023-08-01T01:02:45;94279.31;;;23.59;39.30
21182;BME280;10749;46.296;7.524;2023-08-01T01:05:11;94283.09;;;23.58;39.20
21182;BME280;10749;46.296;7.524;2023-08-01T01:07:39;94274.16;;;23.62;38.83
21182;BME280;10749;46.296;7.524;2023-08-01T01:10:04;94285.78;;;23.63;38.41
21182;BME280;10749;46.296;7.524;2023-08-01T01:12:30;94277.94;;;23.61;38.96
21182;BME280;10749;46.296;7.524;2023-08-01T01:14:55;94279.56;;;23.57;39.25
21182;BME280;10749;46.296;7.524;2023-08-01T01:17:20;94268.25;;;23.55;39.27
21182;BME280;10749;46.296;7.524;2023-08-01T01:19:46;94272.59;;;23.51;39.27
21182;BME280;10749;46.296;7.524;2023-08-01T01:22:11;94280.69;;;23.46;39.41
21182;BME280;10749;46.296;7.524;2023-08-01T01:24:37;94273.09;;;23.48;39.11
21182;BME280;10749;46.296;7.524;2023-08-01T01:27:06;94262.31;;;23.48;39.26
21182;BME280;10749;46.296;7.524;2023-08-01T01:29:33;94269.34;;;23.49;39.21
21182;BME280;10749;46.296;7.524;2023-08-01T01:32:00;94276.09;;;23.47;39.33
21182;BME280;10749;46.296;7.524;2023-08-01T01:34:27;94267.75;;;23.43;39.70
21182;BME280;10749;46.296;7.524;2023-08-01T01:36:53;94261.78;;;23.46;39.61
21182;BME280;10749;46.296;7.524;2023-08-01T01:39:18;94258.00;;;23.47;39.20
21182;BME280;10749;46.296;7.524;2023-08-01T01:41:43;94246.66;;;23.45;39.10
21182;BME280;10749;46.296;7.524;2023-08-01T01:44:09;94248.84;;;23.43;39.33
21182;BME280;10749;46.296;7.524;2023-08-01T01:46:34;94243.66;;;23.36;39.74
21182;BME280;10749;46.296;7.524;2023-08-01T01:48:59;94244.78;;;23.35;39.70
21182;BME280;10749;46.296;7.524;2023-08-01T01:51:26;94248.81;;;23.33;39.96
21182;BME280;10749;46.296;7.524;2023-08-01T01:53:51;94231.53;;;23.34;39.75
21182;BME280;10749;46.296;7.524;2023-08-01T01:56:17;94227.47;;;23.36;39.53
21182;BME280;10749;46.296;7.524;2023-08-01T01:58:42;94228.28;;;23.37;39.60
21182;BME280;10749;46.296;7.524;2023-08-01T02:01:07;94226.41;;;23.37;39.52
21182;BME280;10749;46.296;7.524;2023-08-01T02:03:33;94225.59;;;23.37;39.63
21182;BME280;10749;46.296;7.524;2023-08-01T02:05:58;94229.91;;;23.38;39.86
21182;BME280;10749;46.296;7.524;2023-08-01T02:08:23;94225.88;;;23.35;39.99
21182;BME280;10749;46.296;7.524;2023-08-01T02:10:49;94221.81;;;23.33;39.84
21182;BME280;10749;46.296;7.524;2023-08-01T02:13:14;94216.66;;;23.36;39.88
21182;BME280;10749;46.296;7.524;2023-08-01T02:15:39;94215.34;;;23.34;39.90
21182;BME280;10749;46.296;7.524;2023-08-01T02:18:05;94217.50;;;23.32;39.26
21182;BME280;10749;46.296;7.524;2023-08-01T02:20:30;94217.50;;;23.32;39.30
21182;BME280;10749;46.296;7.524;2023-08-01T02:22:56;94211.56;;;23.30;39.92
21182;BME280;10749;46.296;7.524;2023-08-01T02:25:22;94212.13;;;23.27;39.97
21182;BME280;10749;46.296;7.524;2023-08-01T02:27:47;94209.44;;;23.22;40.24
21182;BME280;10749;46.296;7.524;2023-08-01T02:30:12;94212.13;;;23.17;40.37
21182;BME280;10749;46.296;7.524;2023-08-01T02:32:37;94212.13;;;23.12;40.63
21182;BME280;10749;46.296;7.524;2023-08-01T02:35:03;94213.22;;;23.11;40.81
21182;BME280;10749;46.296;7.524;2023-08-01T02:37:29;94215.94;;;23.11;40.33
21182;BME280;10749;46.296;7.524;2023-08-01T02:39:54;94210.53;;;23.11;39.77
21182;BME280;10749;46.296;7.524;2023-08-01T02:42:19;94203.50;;;23.05;39.80
21182;BME280;10749;46.296;7.524;2023-08-01T02:44:45;94203.50;;;23.05;40.03
21182;BME280;10749;46.296;7.524;2023-08-01T02:47:10;94197.84;;;23.01;40.56
21182;BME280;10749;46.296;7.524;2023-08-01T02:49:35;94190.56;;;22.96;40.71
21182;BME280;10749;46.296;7.524;2023-08-01T02:52:01;94193.25;;;22.91;40.93
21182;BME280;10749;46.296;7.524;2023-08-01T02:54:26;94195.44;;;22.89;40.89
21182;BME280;10749;46.296;7.524;2023-08-01T02:56:51;94195.97;;;22.86;41.31
21182;BME280;10749;46.296;7.524;2023-08-01T02:59:17;94191.13;;;22.83;41.46
21182;BME280;10749;46.296;7.524;2023-08-01T03:01:45;94187.34;;;22.84;41.22
21182;BME280;10749;46.296;7.524;2023-08-01T03:04:10;94189.78;;;22.81;41.45
21182;BME280;10749;46.296;7.524;2023-08-01T03:06:37;94184.66;;;22.79;41.32
21182;BME280;10749;46.296;7.524;2023-08-01T03:09:03;94196.50;;;22.83;41.42
21182;BME280;10749;46.296;7.524;2023-08-01T03:11:31;94196.50;;;22.78;41.62
21182;BME280;10749;46.296;7.524;2023-08-01T03:13:56;94190.28;;;22.78;41.24
21182;BME280;10749;46.296;7.524;2023-08-01T03:16:21;94182.22;;;22.78;41.25
21182;BME280;10749;46.296;7.524;2023-08-01T03:18:47;94195.44;;;22.79;41.08
21182;BME280;10749;46.296;7.524;2023-08-01T03:21:12;94187.88;;;22.71;41.44
21182;BME280;10749;46.296;7.524;2023-08-01T03:23:38;94184.06;;;22.62;41.83
21182;BME280;10749;46.296;7.524;2023-08-01T03:26:04;94190.00;;;22.59;41.85
21182;BME280;10749;46.296;7.524;2023-08-01T03:28:29;94190.56;;;22.56;42.00
21182;BME280;10749;46.296;7.524;2023-08-01T03:30:55;94192.97;;;22.47;42.01
21182;BME280;10749;46.296;7.524;2023-08-01T03:33:21;94192.72;;;22.44;42.14
21182;BME280;10749;46.296;7.524;2023-08-01T03:35:46;94195.41;;;22.39;42.32
21182;BME280;10749;46.296;7.524;2023-08-01T03:38:12;94201.88;;;22.43;42.13
21182;BME280;10749;46.296;7.524;2023-08-01T03:40:37;94208.88;;;22.39;42.49
21182;BME280;10749;46.296;7.524;2023-08-01T03:43:02;94209.94;;;22.33;42.57
21182;BME280;10749;46.296;7.524;2023-08-01T03:45:27;94200.25;;;22.32;42.60
21182;BME280;10749;46.296;7.524;2023-08-01T03:47:53;94198.34;;;22.32;42.56
21182;BME280;10749;46.296;7.524;2023-08-01T03:50:18;94188.38;;;22.33;42.75
21182;BME280;10749;46.296;7.524;2023-08-01T03:52:43;94187.28;;;22.34;42.57
21182;BME280;10749;46.296;7.524;2023-08-01T03:55:09;94179.19;;;22.29;42.72
21182;BME280;10749;46.296;7.524;2023-08-01T03:57:34;94176.50;;;22.24;43.21
21182;BME280;10749;46.296;7.524;2023-08-01T04:00:00;94177.31;;;22.24;43.26
21182;BME280;10749;46.296;7.524;2023-08-01T04:02:25;94171.38;;;22.22;43.18
21182;BME280;10749;46.296;7.524;2023-08-01T04:04:50;94165.75;;;22.24;42.83
21182;BME280;10749;46.296;7.524;2023-08-01T04:07:16;94176.50;;;22.24;43.33
21182;BME280;10749;46.296;7.524;2023-08-01T04:09:41;94181.63;;;22.25;43.28
21182;BME280;10749;46.296;7.524;2023-08-01T04:12:07;94181.34;;;22.22;42.33
21182;BME280;10749;46.296;7.524;2023-08-01T04:14:34;94181.59;;;22.20;41.83
21182;BME280;10749;46.296;7.524;2023-08-01T04:16:59;94177.03;;;22.21;42.79
21182;BME280;10749;46.296;7.524;2023-08-01T04:19:24;94173.25;;;22.22;42.70
21182;BME280;10749;46.296;7.524;2023-08-01T04:21:50;94160.84;;;22.21;42.19
21182;BME280;10749;46.296;7.524;2023-08-01T04:24:15;94156.00;;;22.18;41.80
21182;BME280;10749;46.296;7.524;2023-08-01T04:26:41;94157.63;;;22.14;41.61
21182;BME280;10749;46.296;7.524;2023-08-01T04:29:06;94161.94;;;22.09;41.28
21182;BME280;10749;46.296;7.524;2023-08-01T04:31:31;94151.69;;;22.01;41.31
21182;BME280;10749;46.296;7.524;2023-08-01T04:33:56;94153.81;;;21.99;41.75
21182;BME280;10749;46.296;7.524;2023-08-01T04:36:22;94149.50;;;22.03;41.70
21182;BME280;10749;46.296;7.524;2023-08-01T04:38:47;94147.91;;;22.02;42.44
21182;BME280;10749;46.296;7.524;2023-08-01T04:41:12;94141.97;;;22.05;42.84
21182;BME280;10749;46.296;7.524;2023-08-01T04:43:38;94141.97;;;22.05;43.33
21182;BME280;10749;46.296;7.524;2023-08-01T04:46:03;94134.44;;;22.07;43.19
21182;BME280;10749;46.296;7.524;2023-08-01T04:48:28;94139.03;;;22.12;43.19
21182;BME280;10749;46.296;7.524;2023-08-01T04:50:54;94139.03;;;22.17;42.55
21182;BME280;10749;46.296;7.524;2023-08-01T04:53:19;94140.38;;;22.15;43.08
21182;BME280;10749;46.296;7.524;2023-08-01T04:55:44;94137.94;;;22.13;43.32
21182;BME280;10749;46.296;7.524;2023-08-01T04:58:09;94137.13;;;22.07;44.05
21182;BME280;10749;46.296;7.524;2023-08-01T05:00:35;94138.22;;;22.01;44.12
21182;BME280;10749;46.296;7.524;2023-08-01T05:03:00;94143.03;;;21.99;44.45
21182;BME280;10749;46.296;7.524;2023-08-01T05:05:26;94136.31;;;22.02;44.25
21182;BME280;10749;46.296;7.524;2023-08-01T05:07:51;94139.84;;;22.02;44.58
21182;BME280;10749;46.296;7.524;2023-08-01T05:10:16;94149.50;;;22.03;44.17
21182;BME280;10749;46.296;7.524;2023-08-01T05:12:42;94142.53;;;22.02;43.12
21182;BME280;10749;46.296;7.524;2023-08-01T05:15:07;94147.91;;;21.97;42.68
21182;BME280;10749;46.296;7.524;2023-08-01T05:17:33;94143.31;;;21.93;42.64
21182;BME280;10749;46.296;7.524;2023-08-01T05:19:58;94146.22;;;21.91;42.42
21182;BME280;10749;46.296;7.524;2023-08-01T05:22:23;94148.69;;;21.93;42.93
21182;BME280;10749;46.296;7.524;2023-08-01T05:24:49;94151.69;;;22.01;43.45
21182;BME280;10749;46.296;7.524;2023-08-01T05:27:14;94148.19;;;22.06;43.60
21182;BME280;10749;46.296;7.524;2023-08-01T05:29:39;94153.56;;;22.06;44.39
21182;BME280;10749;46.296;7.524;2023-08-01T05:32:05;94153.56;;;22.06;44.29
21182;BME280;10749;46.296;7.524;2023-08-01T05:34:30;94154.66;;;22.10;44.62
21182;BME280;10749;46.296;7.524;2023-08-01T05:36:55;94140.66;;;22.18;44.56
21182;BME280;10749;46.296;7.524;2023-08-01T05:39:21;94148.19;;;22.21;44.58
21182;BME280;10749;46.296;7.524;2023-08-01T05:41:46;94141.72;;;22.22;44.74
21182;BME280;10749;46.296;7.524;2023-08-01T05:44:11;94148.44;;;22.20;44.63
21182;BME280;10749;46.296;7.524;2023-08-01T05:46:37;94146.84;;;22.19;44.88
21182;BME280;10749;46.296;7.524;2023-08-01T05:49:02;94142.81;;;22.21;44.83
21182;BME280;10749;46.296;7.524;2023-08-01T05:51:27;94146.88;;;22.24;44.98
21182;BME280;10749;46.296;7.524;2023-08-01T05:53:53;94155.22;;;22.27;44.61
21182;BME280;10749;46.296;7.524;2023-08-01T05:56:18;94171.66;;;22.26;44.70
21182;BME280;10749;46.296;7.524;2023-08-01T05:58:43;94173.28;;;22.27;44.89
21182;BME280;10749;46.296;7.524;2023-08-01T06:01:10;94173.53;;;22.25;45.08
21182;BME280;10749;46.296;7.524;2023-08-01T06:03:35;94176.50;;;22.24;45.49
21182;BME280;10749;46.296;7.524;2023-08-01T06:06:01;94163.84;;;22.29;44.63
21182;BME280;10749;46.296;7.524;2023-08-01T06:08:26;94163.03;;;22.24;45.16
21182;BME280;10749;46.296;7.524;2023-08-01T06:10:51;94162.50;;;22.22;45.52
21182;BME280;10749;46.296;7.524;2023-08-01T06:13:17;94159.22;;;22.20;45.99
21182;BME280;10749;46.296;7.524;2023-08-01T06:15:42;94167.63;;;22.23;45.97
21182;BME280;10749;46.296;7.524;2023-08-01T06:18:07;94163.03;;;22.29;44.96
21182;BME280;10749;46.296;7.524;2023-08-01T06:20:33;94164.13;;;22.28;44.32
21182;BME280;10749;46.296;7.524;2023-08-01T06:22:59;94145.25;;;22.28;44.35
21182;BME280;10749;46.296;7.524;2023-08-01T06:25:24;94145.25;;;22.28;44.04
21182;BME280;10749;46.296;7.524;2023-08-01T06:27:49;94154.41;;;22.32;44.82
21182;BME280;10749;46.296;7.524;2023-08-01T06:30:15;94156.84;;;22.38;44.93
21182;BME280;10749;46.296;7.524;2023-08-01T06:32:40;94150.38;;;22.49;45.17
21182;BME280;10749;46.296;7.524;2023-08-01T06:35:06;94149.31;;;22.55;45.17
21182;BME280;10749;46.296;7.524;2023-08-01T06:37:31;94141.22;;;22.55;45.85
21182;BME280;10749;46.296;7.524;2023-08-01T06:39:58;94133.66;;;22.58;44.76
21182;BME280;10749;46.296;7.524;2023-08-01T06:42:23;94147.94;;;22.58;44.63
21182;BME280;10749;46.296;7.524;2023-08-01T06:44:49;94136.88;;;22.49;44.00
21182;BME280;10749;46.296;7.524;2023-08-01T06:47:14;94125.03;;;22.45;43.97
21182;BME280;10749;46.296;7.524;2023-08-01T06:49:39;94136.91;;;22.44;44.11
21182;BME280;10749;46.296;7.524;2023-08-01T06:52:05;94135.28;;;22.43;44.35
21182;BME280;10749;46.296;7.524;2023-08-01T06:54:31;94132.03;;;22.46;44.93
21182;BME280;10749;46.296;7.524;2023-08-01T06:56:57;94118.81;;;22.55;45.00
21182;BME280;10749;46.296;7.524;2023-08-01T06:59:23;94116.13;;;22.60;45.47
21182;BME280;10749;46.296;7.524;2023-08-01T07:01:49;94124.75;;;22.67;45.88
21182;BME280;10749;46.296;7.524;2023-08-01T07:04:14;94133.13;;;22.71;45.73
21182;BME280;10749;46.296;7.524;2023-08-01T07:09:06;94115.31;;;22.80;45.88
21182;BME280;10749;46.296;7.524;2023-08-01T07:11:31;94116.13;;;22.85;46.13
21182;BME280;10749;46.296;7.524;2023-08-01T07:13:57;94110.44;;;22.87;46.06
21182;BME280;10749;46.296;7.524;2023-08-01T07:16:22;94106.38;;;22.94;46.11
21182;BME280;10749;46.296;7.524;2023-08-01T07:18:47;94094.00;;;22.93;46.00
21182;BME280;10749;46.296;7.524;2023-08-01T07:21:17;94096.41;;;22.95;45.21
21182;BME280;10749;46.296;7.524;2023-08-01T07:23:43;94099.38;;;22.93;45.63
21182;BME280;10749;46.296;7.524;2023-08-01T07:26:09;94093.44;;;22.96;45.96
21182;BME280;10749;46.296;7.524;2023-08-01T07:28:34;94090.72;;;23.02;46.12
21182;BME280;10749;46.296;7.524;2023-08-01T07:31:02;94083.69;;;23.06;46.23
21182;BME280;10749;46.296;7.524;2023-08-01T07:33:28;94090.44;;;23.08;46.20
21182;BME280;10749;46.296;7.524;2023-08-01T07:35:53;94097.47;;;23.04;46.15
21182;BME280;10749;46.296;7.524;2023-08-01T07:38:19;94095.00;;;23.08;46.14
21182;BME280;10749;46.296;7.524;2023-08-01T07:40:44;94100.41;;;23.08;46.23
21182;BME280;10749;46.296;7.524;2023-08-01T07:43:09;94085.34;;;23.02;46.48
21182;BME280;10749;46.296;7.524;2023-08-01T07:45:36;94093.38;;;23.07;46.54
21182;BME280;10749;46.296;7.524;2023-08-01T07:48:02;94092.84;;;23.10;45.74
21182;BME280;10749;46.296;7.524;2023-08-01T07:50:27;94090.44;;;23.08;46.20
21182;BME280;10749;46.296;7.524;2023-08-01T07:52:53;94095.81;;;23.13;45.49
21182;BME280;10749;46.296;7.524;2023-08-01T07:55:18;94094.47;;;23.11;45.49
21182;BME280;10749;46.296;7.524;2023-08-01T07:57:46;94084.75;;;23.10;45.83
21182;BME280;10749;46.296;7.524;2023-08-01T08:00:11;94088.47;;;23.24;46.05
21182;BME280;10749;46.296;7.524;2023-08-01T08:02:36;94084.66;;;23.35;46.12
21182;BME280;10749;46.296;7.524;2023-08-01T08:05:02;94086.78;;;23.48;45.96
21182;BME280;10749;46.296;7.524;2023-08-01T08:07:27;94080.25;;;23.59;46.17
21182;BME280;10749;46.296;7.524;2023-08-01T08:09:52;94061.34;;;23.59;46.01
21182;BME280;10749;46.296;7.524;2023-08-01T08:12:23;94064.06;;;23.59;45.84
21182;BME280;10749;46.296;7.524;2023-08-01T08:14:48;94062.69;;;23.62;46.35
21182;BME280;10749;46.296;7.524;2023-08-01T08:17:14;94066.91;;;23.78;45.92
21182;BME280;10749;46.296;7.524;2023-08-01T08:19:40;94071.97;;;23.89;46.07
21182;BME280;10749;46.296;7.524;2023-08-01T08:22:05;94088.72;;;23.91;46.01
21182;BME280;10749;46.296;7.524;2023-08-01T08:24:30;94076.53;;;23.94;45.94
21182;BME280;10749;46.296;7.524;2023-08-01T08:26:56;94078.16;;;23.95;45.76
21182;BME280;10749;46.296;7.524;2023-08-01T08:29:21;94077.31;;;24.00;45.69
21182;BME280;10749;46.296;7.524;2023-08-01T08:31:47;94072.72;;;24.00;45.37
21182;BME280;10749;46.296;7.524;2023-08-01T08:34:12;94070.25;;;24.04;45.74
21182;BME280;10749;46.296;7.524;2023-08-01T08:36:38;94072.34;;;24.12;45.50
21182;BME280;10749;46.296;7.524;2023-08-01T08:39:03;94075.59;;;24.14;45.69
21182;BME280;10749;46.296;7.524;2023-08-01T08:41:35;94089.84;;;24.24;45.26
21182;BME280;10749;46.296;7.524;2023-08-01T08:44:01;94081.47;;;24.26;45.47
21182;BME280;10749;46.296;7.524;2023-08-01T08:46:34;94083.72;;;24.14;45.00
21182;BME280;10749;46.296;7.524;2023-08-01T08:49:01;94074.78;;;24.13;45.10
21182;BME280;10749;46.296;7.524;2023-08-01T08:51:26;94078.31;;;24.14;45.01
21182;BME280;10749;46.296;7.524;2023-08-01T08:53:54;94092.94;;;24.03;44.70
21182;BME280;10749;46.296;7.524;2023-08-01T08:56:20;94098.91;;;24.05;44.64
21182;BME280;10749;46.296;7.524;2023-08-01T08:58:45;94087.53;;;24.08;44.64
21182;BME280;10749;46.296;7.524;2023-08-01T09:01:12;94086.94;;;24.16;44.98
21182;BME280;10749;46.296;7.524;2023-08-01T09:03:38;94093.78;;;24.42;45.22
21182;BME280;10749;46.296;7.524;2023-08-01T09:06:17;94093.25;;;24.40;44.59
21182;BME280;10749;46.296;7.524;2023-08-01T09:09:03;94086.47;;;24.43;44.48
21182;BME280;10749;46.296;7.524;2023-08-01T09:11:38;94084.47;;;24.53;44.54
21182;BME280;10749;46.296;7.524;2023-08-01T09:14:03;94089.31;;;24.56;44.38
21182;BME280;10749;46.296;7.524;2023-08-01T09:16:29;94076.59;;;24.57;43.96
21182;BME280;10749;46.296;7.524;2023-08-01T09:18:54;94079.53;;;24.60;43.94
21182;BME280;10749;46.296;7.524;2023-08-01T09:21:22;94069.56;;;24.56;43.80
21182;BME280;10749;46.296;7.524;2023-08-01T09:23:48;94063.06;;;24.57;44.11
21182;BME280;10749;46.296;7.524;2023-08-01T09:26:18;94061.78;;;24.78;44.02
21182;BME280;10749;46.296;7.524;2023-08-01T09:28:43;94068.47;;;24.91;44.20
21182;BME280;10749;46.296;7.524;2023-08-01T09:31:10;94060.16;;;25.06;44.31
21182;BME280;10749;46.296;7.524;2023-08-01T09:33:40;94065.69;;;25.19;44.20
21182;BME280;10749;46.296;7.524;2023-08-01T09:36:06;94054.00;;;25.24;43.64
21182;BME280;10749;46.296;7.524;2023-08-01T09:38:36;94051.88;;;25.21;43.56
21182;BME280;10749;46.296;7.524;2023-08-01T09:41:03;94052.91;;;25.25;43.21
21182;BME280;10749;46.296;7.524;2023-08-01T09:43:36;94062.06;;;25.29;43.46
21182;BME280;10749;46.296;7.524;2023-08-01T09:46:02;94062.66;;;25.26;43.49
21182;BME280;10749;46.296;7.524;2023-08-01T09:48:28;94055.56;;;25.30;43.58
21182;BME280;10749;46.296;7.524;2023-08-01T09:51:11;94063.56;;;25.40;43.58
21182;BME280;10749;46.296;7.524;2023-08-01T09:56:13;94078.88;;;25.50;42.87
21182;BME280;10749;46.296;7.524;2023-08-01T09:58:42;94094.97;;;25.41;42.63
21182;BME280;10749;46.296;7.524;2023-08-01T10:01:08;94083.69;;;25.34;42.24
21182;BME280;10749;46.296;7.524;2023-08-01T10:03:34;94087.47;;;25.33;42.31
21182;BME280;10749;46.296;7.524;2023-08-01T10:06:00;94089.31;;;25.14;41.60
21182;BME280;10749;46.296;7.524;2023-08-01T10:08:25;94094.25;;;25.07;41.67
21182;BME280;10749;46.296;7.524;2023-08-01T10:10:52;94089.22;;;25.24;41.98
21182;BME280;10749;46.296;7.524;2023-08-01T10:13:23;94090.41;;;25.37;41.67
21182;BME280;10749;46.296;7.524;2023-08-01T10:15:50;94096.59;;;25.42;41.67
21182;BME280;10749;46.296;7.524;2023-08-01T10:18:16;94093.28;;;25.45;41.49
21182;BME280;10749;46.296;7.524;2023-08-01T10:20:42;94095.09;;;25.55;41.50
21182;BME280;10749;46.296;7.524;2023-08-01T10:23:09;94095.19;;;25.68;41.85
21182;BME280;10749;46.296;7.524;2023-08-01T10:25:36;94077.72;;;25.80;41.78
21182;BME280;10749;46.296;7.524;2023-08-01T10:28:03;94066.78;;;25.85;41.62
21182;BME280;10749;46.296;7.524;2023-08-01T10:30:29;94073.00;;;26.04;41.67
21182;BME280;10749;46.296;7.524;2023-08-01T10:32:56;94064.78;;;26.09;41.54
21182;BME280;10749;46.296;7.524;2023-08-01T10:35:33;94050.50;;;26.22;41.77
21182;BME280;10749;46.296;7.524;2023-08-01T10:38:11;94072.88;;;26.33;41.12
21182;BME280;10749;46.296;7.524;2023-08-01T10:40:41;94060.06;;;26.20;40.63
21182;BME280;10749;46.296;7.524;2023-08-01T10:43:19;94054.78;;;26.28;40.80
21182;BME280;10749;46.296;7.524;2023-08-01T10:45:46;94055.78;;;26.32;40.71
21182;BME280;10749;46.296;7.524;2023-08-01T10:48:11;94053.91;;;26.46;40.86
21182;BME280;10749;46.296;7.524;2023-08-01T10:50:37;94052.72;;;26.52;40.49
21182;BME280;10749;46.296;7.524;2023-08-01T10:53:09;94045.53;;;26.61;40.54
21182;BME280;10749;46.296;7.524;2023-08-01T10:55:43;94051.19;;;26.79;40.51
21182;BME280;10749;46.296;7.524;2023-08-01T10:58:09;94044.72;;;27.07;40.42
21182;BME280;10749;46.296;7.524;2023-08-01T11:00:34;94041.06;;;27.25;40.30
21182;BME280;10749;46.296;7.524;2023-08-01T11:03:00;94041.69;;;27.22;39.96
21182;BME280;10749;46.296;7.524;2023-08-01T11:05:25;94042.09;;;27.16;38.62
21182;BME280;10749;46.296;7.524;2023-08-01T11:07:54;94046.63;;;27.06;36.72
21182;BME280;10749;46.296;7.524;2023-08-01T11:10:21;94030.63;;;27.19;37.75
21182;BME280;10749;46.296;7.524;2023-08-01T11:12:46;94036.56;;;27.34;37.08
21182;BME280;10749;46.296;7.524;2023-08-01T11:15:13;94036.97;;;27.41;36.87
21182;BME280;10749;46.296;7.524;2023-08-01T11:17:45;94049.75;;;27.41;35.72
21182;BME280;10749;46.296;7.524;2023-08-01T11:20:12;94041.06;;;27.25;35.87
21182;BME280;10749;46.296;7.524;2023-08-01T11:22:48;94043.19;;;27.42;35.90
21182;BME280;10749;46.296;7.524;2023-08-01T11:25:14;94046.22;;;27.54;35.68
21182;BME280;10749;46.296;7.524;2023-08-01T11:27:39;94040.50;;;27.56;35.68
21182;BME280;10749;46.296;7.524;2023-08-01T11:30:05;94042.09;;;27.57;35.95
21182;BME280;10749;46.296;7.524;2023-08-01T11:32:37;94047.09;;;27.77;36.03
21182;BME280;10749;46.296;7.524;2023-08-01T11:35:04;94037.03;;;27.77;35.30
21182;BME280;10749;46.296;7.524;2023-08-01T11:37:29;94041.03;;;27.80;35.52
21182;BME280;10749;46.296;7.524;2023-08-01T11:39:56;94031.22;;;27.70;33.63
21182;BME280;10749;46.296;7.524;2023-08-01T11:42:22;94033.84;;;27.62;34.09
21182;BME280;10749;46.296;7.524;2023-08-01T11:44:48;94032.72;;;27.63;33.76
21182;BME280;10749;46.296;7.524;2023-08-01T11:47:17;94031.63;;;27.64;33.86
21182;BME280;10749;46.296;7.524;2023-08-01T11:49:47;94016.94;;;27.51;33.67
21182;BME280;10749;46.296;7.524;2023-08-01T11:52:26;94028.81;;;27.55;33.52
21182;BME280;10749;46.296;7.524;2023-08-01T11:54:52;94026.41;;;27.53;33.78
21182;BME280;10749;46.296;7.524;2023-08-01T11:57:19;94023.00;;;27.48;33.45
21182;BME280;10749;46.296;7.524;2023-08-01T11:59:49;94026.69;;;27.38;31.86
21182;BME280;10749;46.296;7.524;2023-08-01T12:02:24;94040.09;;;27.48;31.26
21182;BME280;10749;46.296;7.524;2023-08-01T12:04:51;94033.22;;;27.37;31.27
21182;BME280;10749;46.296;7.524;2023-08-01T12:07:16;94038.66;;;27.37;31.96
21182;BME280;10749;46.296;7.524;2023-08-01T12:09:42;94025.59;;;27.39;30.86
21182;BME280;10749;46.296;7.524;2023-08-01T12:12:09;94023.38;;;27.55;31.62
21182;BME280;10749;46.296;7.524;2023-08-01T12:14:39;94037.13;;;27.72;31.91
21182;BME280;10749;46.296;7.524;2023-08-01T12:17:05;94032.28;;;27.83;31.71
21182;BME280;10749;46.296;7.524;2023-08-01T12:19:30;94032.34;;;27.91;29.79
21182;BME280;10749;46.296;7.524;2023-08-01T12:21:55;94022.25;;;28.06;31.23
21182;BME280;10749;46.296;7.524;2023-08-01T12:24:21;94015.72;;;28.29;31.38
21182;BME280;10749;46.296;7.524;2023-08-01T12:26:46;94018.50;;;28.60;31.85
21182;BME280;10749;46.296;7.524;2023-08-01T12:29:11;94013.44;;;28.98;31.81
21182;BME280;10749;46.296;7.524;2023-08-01T12:31:37;94012.66;;;29.06;29.92
21182;BME280;10749;46.296;7.524;2023-08-01T12:34:02;94014.88;;;29.04;29.14
21182;BME280;10749;46.296;7.524;2023-08-01T12:36:27;94018.91;;;29.06;30.44
21182;BME280;10749;46.296;7.524;2023-08-01T12:38:53;94001.78;;;29.06;29.96
21182;BME280;10749;46.296;7.524;2023-08-01T12:41:18;94002.56;;;29.06;29.54
21182;BME280;10749;46.296;7.524;2023-08-01T12:43:44;94001.94;;;29.09;30.67
21182;BME280;10749;46.296;7.524;2023-08-01T12:46:09;94012.56;;;29.19;29.97
21182;BME280;10749;46.296;7.524;2023-08-01T12:48:34;94009.91;;;29.37;30.22
21182;BME280;10749;46.296;7.524;2023-08-01T12:50:59;94017.34;;;29.70;30.61
21182;BME280;10749;46.296;7.524;2023-08-01T12:53:25;94011.97;;;29.96;29.86
21182;BME280;10749;46.296;7.524;2023-08-01T12:55:51;94020.97;;;30.05;30.42
21182;BME280;10749;46.296;7.524;2023-08-01T12:58:17;94013.56;;;30.06;28.82
21182;BME280;10749;46.296;7.524;2023-08-01T13:00:44;94011.31;;;29.91;28.37